Time;durP1;ratioP1;P1;durP2;ratioP2;P2;SDS_P1;SDS_P2;PMS_P1;PMS_P2;Temp;Humidity;BMP_temperature;BMP_pressure;BME280_temperature;BME280_humidity;BME280_pressure;Samples;Min_cycle;Max_cycle;Signal;HPM_P1;HPM_P2
2022/05/29 00:01:35;;;;;;;10.38;2.40;;;;;;;8.07;79.74;98997.84;8199653;28;20051;-72
2022/05/29 00:05:37;;;;;;;12.18;2.90;;;;;;;8.02;79.74;98989.88;8200556;28;20043;-72
2022/05/29 00:09:47;;;;;;;8.85;1.98;;;;;;;7.93;80.00;98991.59;8198691;28;20047;-72
2022/05/29 00:13:48;;;;;;;7.68;2.20;;;;;;;7.85;80.20;99000.34;8227169;28;20047;-72
2022/05/29 00:17:49;;;;;;;5.43;2.15;;;;;;;7.72;80.62;98984.94;8261076;28;20097;-73
2022/05/29 00:21:50;;;;;;;15.45;2.42;;;;;;;7.62;81.00;98996.66;8220763;28;20522;-73
2022/05/29 00:25:52;;;;;;;16.77;2.70;;;;;;;7.54;81.16;98988.47;8213065;28;20499;-72
2022/05/29 00:29:53;;;;;;;12.70;2.67;;;;;;;7.46;81.38;98981.06;8225974;28;20557;-72
2022/05/29 00:33:54;;;;;;;6.40;2.13;;;;;;;7.41;81.73;98984.63;8226248;28;20043;-72
2022/05/29 00:37:55;;;;;;;8.55;2.85;;;;;;;7.37;81.76;98982.81;8226549;28;20550;-71
2022/05/29 00:41:57;;;;;;;12.73;2.90;;;;;;;7.36;82.08;98975.81;8210644;28;20150;-71
2022/05/29 00:46:00;;;;;;;14.05;2.60;;;;;;;7.36;82.15;98975.81;8192157;28;20561;-72
2022/05/29 00:50:01;;;;;;;11.18;2.60;;;;;;;7.37;81.99;98978.22;8225863;28;20050;-71
2022/05/29 00:54:02;;;;;;;10.82;2.58;;;;;;;7.31;82.07;98979.38;8226540;28;20194;-72
2022/05/29 00:58:04;;;;;;;7.25;2.70;;;;;;;7.28;82.20;98976.50;8162204;28;20063;-72
2022/05/29 01:02:05;;;;;;;11.48;2.58;;;;;;;7.25;82.23;98971.69;8174047;28;20134;-72
2022/05/29 01:06:07;;;;;;;10.30;2.70;;;;;;;7.24;82.45;98972.78;8217501;28;20051;-72
2022/05/29 01:10:11;;;;;;;9.55;2.67;;;;;;;7.26;82.26;98975.97;8215922;28;20079;-72
2022/05/29 01:14:40;;;;;;;9.55;2.53;;;;;;;7.25;82.28;98974.38;8202993;28;20070;-72
2022/05/29 01:18:47;;;;;;;11.52;3.47;;;;;;;7.30;82.75;98971.59;8168449;29;20559;-72
2022/05/29 01:23:17;;;;;;;9.37;2.87;;;;;;;7.28;82.97;98973.81;8119352;29;20104;-72
2022/05/29 01:27:40;;;;;;;8.50;2.65;;;;;;;7.25;82.81;98971.69;8102925;29;20854;-71
2022/05/29 01:31:51;;;;;;;14.85;2.65;;;;;;;7.19;82.82;98971.75;8168087;29;20048;-71
2022/05/29 01:36:02;;;;;;;13.95;3.47;;;;;;;7.19;83.06;98966.38;8127050;29;20077;-72
2022/05/29 01:40:18;;;;;;;10.45;2.95;;;;;;;7.18;83.03;98964.81;8109649;29;20052;-72
2022/05/29 01:44:41;;;;;;;7.03;2.35;;;;;;;7.17;83.21;98963.19;8121358;29;20060;-71
2022/05/29 01:48:54;;;;;;;9.57;2.42;;;;;;;7.12;82.96;98965.97;8042931;29;20053;-72
2022/05/29 01:53:00;;;;;;;15.05;2.60;;;;;;;7.11;83.23;98959.00;8073899;29;20087;-72
2022/05/29 01:57:13;;;;;;;12.00;2.28;;;;;;;7.08;83.05;98964.16;8092566;29;20120;-72
2022/05/29 02:01:15;;;;;;;11.23;2.75;;;;;;;7.00;82.94;98957.53;8093821;29;20144;-73
2022/05/29 02:05:21;;;;;;;13.45;2.88;;;;;;;6.85;83.41;98960.41;8073702;29;20127;-73
2022/05/29 02:09:23;;;;;;;15.75;2.70;;;;;;;6.74;83.27;98958.94;8054010;29;20347;-72
2022/05/29 02:13:31;;;;;;;11.00;2.45;;;;;;;6.65;83.76;98955.28;8068545;29;20057;-72
2022/05/29 02:17:42;;;;;;;7.97;2.90;;;;;;;6.53;83.81;98960.25;8073219;29;20102;-71
2022/05/29 02:21:50;;;;;;;13.18;2.75;;;;;;;6.41;84.26;98965.19;8065712;29;20761;-73
2022/05/29 02:25:53;;;;;;;11.80;2.55;;;;;;;6.32;84.46;98963.16;8140005;29;20051;-72
2022/05/29 02:29:56;;;;;;;8.00;2.50;;;;;;;6.25;84.46;98957.31;8166210;29;20071;-71
2022/05/29 02:34:15;;;;;;;11.07;2.95;;;;;;;6.15;84.57;98962.78;8169777;29;20138;-71
2022/05/29 02:38:35;;;;;;;9.32;2.47;;;;;;;6.11;84.73;98956.41;8197538;28;20060;-73
2022/05/29 02:42:45;;;;;;;7.10;2.25;;;;;;;6.06;84.64;98953.75;8182285;29;20051;-71
2022/05/29 02:47:21;;;;;;;15.32;3.13;;;;;;;6.02;84.77;98958.09;8197473;28;20046;-72
2022/05/29 02:51:27;;;;;;;11.30;3.10;;;;;;;5.95;84.85;98962.97;8111842;29;20128;-72
2022/05/29 02:55:28;;;;;;;13.55;2.70;;;;;;;5.95;84.74;98973.69;8092104;29;20085;-72
2022/05/29 02:59:32;;;;;;;11.70;2.63;;;;;;;5.90;84.85;98971.06;8113949;29;20535;-72
2022/05/29 03:03:59;;;;;;;10.65;2.58;;;;;;;5.91;84.82;98978.03;8095891;29;20059;-72
2022/05/29 03:08:24;;;;;;;10.27;2.70;;;;;;;5.90;84.76;98976.44;8117094;29;20059;-72
2022/05/29 03:12:35;;;;;;;7.65;2.50;;;;;;;5.89;84.73;98966.78;8074004;29;20048;-73
2022/05/29 03:16:44;;;;;;;9.32;2.75;;;;;;;5.91;84.63;98978.03;8109965;29;20438;-72
2022/05/29 03:20:54;;;;;;;10.55;3.10;;;;;;;5.88;84.59;98978.56;8086331;29;20045;-72
2022/05/29 03:24:55;;;;;;;9.23;2.42;;;;;;;5.91;84.60;98978.03;8090234;29;20138;-72
2022/05/29 03:29:11;;;;;;;6.10;2.50;;;;;;;5.96;84.41;98980.66;8190076;29;20047;-72
2022/05/29 03:33:14;;;;;;;8.60;2.53;;;;;;;5.98;84.19;98978.47;8201470;28;20487;-72
2022/05/29 03:37:14;;;;;;;12.48;2.60;;;;;;;6.02;84.21;98974.19;8182198;28;20487;-71
2022/05/29 03:41:25;;;;;;;9.88;2.55;;;;;;;6.02;84.38;98968.81;8206350;28;20054;-72
2022/05/29 03:45:26;;;;;;;11.82;2.78;;;;;;;6.04;84.20;98977.38;8189410;28;20526;-71
2022/05/29 03:49:28;;;;;;;15.63;2.90;;;;;;;6.10;84.54;98973.56;8203334;28;20047;-72
2022/05/29 03:53:29;;;;;;;19.42;3.35;;;;;;;6.25;85.22;98962.69;8199617;28;20058;-72
2022/05/29 03:57:30;;;;;;;15.25;3.30;;;;;;;6.42;85.53;98967.59;8200459;28;20142;-72
2022/05/29 04:01:32;;;;;;;10.20;2.92;;;;;;;6.58;85.87;98977.09;8222873;28;20113;-72
2022/05/29 04:05:32;;;;;;;13.27;3.50;;;;;;;6.73;86.37;98978.78;8215034;28;20522;-72
2022/05/29 04:13:53;;;;;;;10.93;3.63;;;;;;;7.07;86.82;98984.03;8205550;28;20092;-72
2022/05/29 04:17:55;;;;;;;13.38;3.83;;;;;;;7.16;86.65;98966.97;8197168;28;20093;-72
2022/05/29 04:21:56;;;;;;;21.40;4.10;;;;;;;7.28;86.17;98979.19;8221449;28;20043;-72
2022/05/29 04:25:57;;;;;;;13.93;3.75;;;;;;;7.43;86.00;98981.66;8204681;28;20106;-73
2022/05/29 04:30:01;;;;;;;16.75;3.83;;;;;;;7.53;85.69;98976.13;8198577;29;20059;-73
2022/05/29 04:34:02;;;;;;;10.57;3.67;;;;;;;7.65;85.58;98979.16;8204039;28;20081;-73
2022/05/29 04:38:04;;;;;;;12.90;3.75;;;;;;;7.74;85.51;98969.34;8209936;28;20436;-73
2022/05/29 04:42:05;;;;;;;13.82;3.35;;;;;;;7.84;85.11;98966.50;8193595;28;20086;-72
2022/05/29 04:46:06;;;;;;;25.17;4.93;;;;;;;7.95;85.00;98973.31;8202339;28;20118;-72
2022/05/29 04:50:08;;;;;;;10.45;3.50;;;;;;;8.07;84.65;98970.94;8223347;28;20051;-72
2022/05/29 04:54:09;;;;;;;9.65;3.08;;;;;;;8.15;84.25;98971.34;8196329;28;20060;-73
2022/05/29 04:58:10;;;;;;;15.45;3.30;;;;;;;8.25;84.09;98976.56;8194904;28;20487;-72
2022/05/29 05:02:11;;;;;;;13.40;3.55;;;;;;;8.41;83.31;98964.44;8191221;28;20138;-72
2022/05/29 05:06:12;;;;;;;12.07;3.10;;;;;;;8.44;82.58;98970.03;8184650;28;20503;-72
2022/05/29 05:10:15;;;;;;;12.57;3.00;;;;;;;8.49;82.83;98961.06;8177961;28;20063;-72
2022/05/29 05:14:16;;;;;;;13.68;3.20;;;;;;;8.58;82.65;98953.91;8184742;28;20427;-73
2022/05/29 05:18:17;;;;;;;9.23;3.08;;;;;;;8.67;82.50;98957.47;8202603;28;20051;-73
2022/05/29 05:22:18;;;;;;;10.48;2.90;;;;;;;8.77;81.91;98962.69;8206926;28;20047;-72
2022/05/29 05:26:19;;;;;;;10.38;2.65;;;;;;;8.85;81.03;98970.03;8209097;28;20057;-71
2022/05/29 05:30:20;;;;;;;19.13;3.20;;;;;;;8.97;80.85;98966.06;8203689;28;20054;-72
2022/05/29 05:34:22;;;;;;;8.10;2.78;;;;;;;9.06;80.39;98967.72;8204725;28;20065;-72
2022/05/29 05:38:23;;;;;;;14.38;3.33;;;;;;;9.21;79.96;98971.97;8200334;28;20478;-74
2022/05/29 05:42:24;;;;;;;11.95;2.58;;;;;;;9.31;78.92;98964.47;8220037;28;20059;-72
2022/05/29 05:46:25;;;;;;;12.23;2.53;;;;;;;9.42;78.81;98975.81;8225006;28;20054;-72
2022/05/29 05:50:26;;;;;;;10.77;2.20;;;;;;;9.57;78.37;98978.16;8206589;28;20491;-72
2022/05/29 05:54:32;;;;;;;13.18;2.58;;;;;;;9.72;78.54;98983.22;8203511;28;20051;-72
2022/05/29 05:58:33;;;;;;;13.45;2.60;;;;;;;9.85;77.60;98976.16;8217399;28;20047;-72
2022/05/29 06:02:34;;;;;;;20.42;2.80;;;;;;;9.98;77.44;98979.91;8232008;28;20566;-73
2022/05/29 06:06:35;;;;;;;12.52;2.17;;;;;;;10.01;77.37;98979.28;8241741;28;20054;-72
2022/05/29 06:10:36;;;;;;;9.52;2.58;;;;;;;10.06;75.94;98987.25;8226295;28;20074;-71
2022/05/29 06:14:37;;;;;;;8.43;2.60;;;;;;;10.15;75.96;98980.03;8227054;28;20440;-72
2022/05/29 06:18:38;;;;;;;12.70;2.45;;;;;;;10.27;75.48;98987.56;8211153;28;20055;-72
2022/05/29 06:22:40;;;;;;;12.02;2.92;;;;;;;10.36;74.80;98997.34;8234124;28;20503;-73
2022/05/29 06:26:41;;;;;;;11.57;2.55;;;;;;;10.46;74.91;99002.47;8226051;28;20456;-72
2022/05/29 06:30:44;;;;;;;13.07;2.13;;;;;;;10.65;74.13;99004.13;8185178;28;20044;-72
2022/05/29 06:34:45;;;;;;;15.23;2.78;;;;;;;10.85;72.96;99003.56;8194198;28;20051;-72
2022/05/29 06:38:47;;;;;;;8.02;2.67;;;;;;;10.97;73.14;99001.06;8215619;28;20050;-72
2022/05/29 06:42:48;;;;;;;17.63;3.20;;;;;;;10.99;71.68;99004.25;8205887;28;20055;-74
2022/05/29 06:46:49;;;;;;;8.18;2.65;;;;;;;11.01;72.56;99004.72;8201463;28;20523;-73
2022/05/29 06:50:50;;;;;;;15.52;2.90;;;;;;;11.05;73.28;99002.97;8200809;28;20039;-73
2022/05/29 06:54:51;;;;;;;14.25;2.97;;;;;;;11.20;71.96;99010.69;8201078;28;20490;-73
2022/05/29 06:58:54;;;;;;;14.52;2.80;;;;;;;11.29;71.63;99014.19;8201257;28;20051;-73
2022/05/29 07:07:16;;;;;;;15.32;2.88;;;;;;;11.63;68.91;99007.25;8183636;29;20102;-73
2022/05/29 07:11:20;;;;;;;11.25;2.30;;;;;;;11.68;67.49;99001.66;8199003;28;20053;-73
2022/05/29 07:15:21;;;;;;;14.73;2.58;;;;;;;11.81;68.62;99008.84;8199390;28;20050;-72
2022/05/29 07:19:25;;;;;;;18.63;2.97;;;;;;;11.98;67.14;99014.25;8199219;28;20055;-73
2022/05/29 07:23:26;;;;;;;15.43;2.45;;;;;;;12.02;65.83;99009.78;8197922;28;20169;-72
2022/05/29 07:27:30;;;;;;;17.83;2.63;;;;;;;12.05;65.11;99001.03;8200347;28;20444;-72
2022/05/29 07:31:31;;;;;;;11.07;3.17;;;;;;;12.14;64.17;98996.41;8199391;29;20047;-71
2022/05/29 07:35:32;;;;;;;11.07;2.90;;;;;;;12.10;65.29;98984.63;8198167;29;20051;-73
2022/05/29 07:39:37;;;;;;;10.48;2.67;;;;;;;12.07;63.52;99004.22;8201216;28;20455;-71
2022/05/29 07:43:38;;;;;;;12.02;2.22;;;;;;;12.20;64.00;99000.53;8201074;28;20093;-72
2022/05/29 07:47:42;;;;;;;15.50;2.45;;;;;;;12.42;62.09;99001.44;8198952;28;20062;-73
2022/05/29 07:51:43;;;;;;;9.43;2.15;;;;;;;12.60;62.18;98998.34;8197670;28;20098;-74
2022/05/29 07:55:45;;;;;;;9.13;2.35;;;;;;;12.80;61.19;98996.81;8202411;28;20051;-72
2022/05/29 07:59:45;;;;;;;15.07;3.15;;;;;;;12.80;61.18;99002.25;8197805;28;20054;-72
2022/05/29 08:03:48;;;;;;;10.65;2.53;;;;;;;12.83;59.29;99001.59;8195954;28;20062;-73
2022/05/29 08:07:49;;;;;;;11.85;2.42;;;;;;;12.94;60.58;98989.28;8201962;28;20126;-72
2022/05/29 08:11:51;;;;;;;12.63;2.38;;;;;;;13.17;59.60;98999.84;8229655;28;20499;-74
2022/05/29 08:15:51;;;;;;;12.90;2.00;;;;;;;13.13;58.15;98993.50;8229659;28;20043;-72
2022/05/29 08:19:53;;;;;;;10.27;2.40;;;;;;;13.38;59.00;98995.25;8195155;28;20051;-73
2022/05/29 08:32:33;;;;;;;12.80;2.03;;;;;;;14.01;56.79;98996.06;8168309;29;20062;-73
2022/05/29 08:36:35;;;;;;;7.13;1.80;;;;;;;13.87;53.57;98999.03;8214729;28;20046;-73
2022/05/29 08:40:57;;;;;;;10.23;2.42;;;;;;;14.13;54.84;98987.94;8191241;28;20426;-73
2022/05/29 08:44:59;;;;;;;6.55;1.65;;;;;;;14.25;52.20;98990.69;8197498;28;20051;-72
2022/05/29 08:49:00;;;;;;;6.43;2.13;;;;;;;14.40;50.87;98972.97;8165076;29;20073;-73
2022/05/29 08:53:08;;;;;;;11.45;2.38;;;;;;;14.67;51.76;98978.59;8210566;28;20055;-74
2022/05/29 08:57:09;;;;;;;9.47;1.87;;;;;;;15.11;48.88;98984.25;8224041;28;20054;-72
2022/05/29 09:01:33;;;;;;;10.77;1.95;;;;;;;15.16;48.81;98970.44;8198628;28;20056;-72
2022/05/29 09:05:48;;;;;;;8.30;1.50;;;;;;;15.30;50.13;98976.28;8197347;29;20056;-73
2022/05/29 09:10:04;;;;;;;6.82;1.63;;;;;;;14.74;46.59;98984.25;8197731;28;20047;-73
2022/05/29 09:14:10;;;;;;;11.38;1.50;;;;;;;14.70;46.89;98980.59;8195037;28;20059;-72
2022/05/29 09:18:17;;;;;;;6.80;1.52;;;;;;;14.55;47.85;98984.00;8198772;28;20138;-72
2022/05/29 09:22:28;;;;;;;7.03;1.60;;;;;;;14.49;48.34;98977.19;8196766;29;20058;-72
2022/05/29 09:26:35;;;;;;;7.80;1.20;;;;;;;14.54;48.11;98976.97;8210354;28;20050;-73
2022/05/29 09:30:38;;;;;;;6.78;1.50;;;;;;;14.63;47.71;98985.81;8228472;28;20061;-72
2022/05/29 09:34:40;;;;;;;8.73;1.42;;;;;;;14.52;47.24;98979.25;8203488;28;20099;-74
2022/05/29 09:38:54;;;;;;;7.90;1.50;;;;;;;14.46;48.48;98986.03;8215386;28;20044;-73
2022/05/29 09:42:56;;;;;;;11.35;1.70;;;;;;;14.78;47.75;98974.28;8187965;28;20569;-73
2022/05/29 09:49:40;;;;;;;8.25;1.63;;;;;;;15.42;48.29;98968.09;8209190;28;20051;-72
2022/05/29 09:51:25;;;;;;;6.50;1.40;;;;;;;15.83;43.97;98966.19;8210482;28;20550;-72
2022/05/29 09:55:30;;;;;;;9.32;1.90;;;;;;;15.66;44.58;98961.03;8203124;28;20061;-72
2022/05/29 09:59:37;;;;;;;7.18;1.85;;;;;;;15.50;47.36;98960.94;8169389;28;20527;-72
2022/05/29 10:03:50;;;;;;;6.05;1.85;;;;;;;15.90;44.98;98950.06;8202105;28;20396;-73
2022/05/29 10:07:55;;;;;;;5.25;1.50;;;;;;;15.66;44.31;98961.81;8198594;29;20055;-72
2022/05/29 10:12:15;;;;;;;4.05;1.23;;;;;;;15.41;44.07;98960.28;8135269;29;20087;-71
2022/05/29 10:16:42;;;;;;;6.90;1.73;;;;;;;15.73;44.09;98962.03;8135886;29;20067;-72
2022/05/29 10:20:44;;;;;;;8.50;2.15;;;;;;;16.27;42.76;98959.63;8026645;29;20140;-72
2022/05/29 10:24:46;;;;;;;6.30;1.40;;;;;;;16.40;41.18;98952.94;8042178;29;20053;-73
2022/05/29 10:28:47;;;;;;;5.97;1.23;;;;;;;16.06;41.57;98953.63;8042455;29;20106;-73
2022/05/29 10:32:48;;;;;;;6.30;1.60;;;;;;;15.84;42.96;98962.34;8027199;29;20519;-73
2022/05/29 10:36:49;;;;;;;5.72;1.40;;;;;;;15.56;44.15;98979.44;8040807;29;20126;-73
2022/05/29 10:40:53;;;;;;;6.72;1.80;;;;;;;15.56;45.23;98968.56;8041608;29;20064;-72
2022/05/29 10:44:57;;;;;;;8.00;2.08;;;;;;;15.86;44.76;98970.97;8041788;29;20054;-72
2022/05/29 10:49:01;;;;;;;9.65;1.77;;;;;;;16.45;42.99;98955.41;8079002;29;20053;-73
2022/05/29 10:53:13;;;;;;;7.38;1.40;;;;;;;16.95;40.94;98955.88;8103244;29;20072;-72
2022/05/29 10:57:20;;;;;;;3.35;1.40;;;;;;;16.66;41.04;98965.28;8164890;29;20055;-73
2022/05/29 11:06:20;;;;;;;10.65;1.55;;;;;;;16.31;40.43;98965.97;8201476;29;20055;-72
2022/05/29 11:10:56;;;;;;;4.20;1.50;;;;;;;16.27;41.93;98965.09;8207920;28;20067;-73
2022/05/29 11:14:57;;;;;;;9.57;1.60;;;;;;;16.17;41.52;98962.88;8202112;28;20043;-73
2022/05/29 11:19:01;;;;;;;6.95;1.60;;;;;;;16.23;42.10;98958.72;8201121;28;20086;-72
2022/05/29 11:23:08;;;;;;;6.57;1.73;;;;;;;16.36;39.74;98952.06;8202911;28;20069;-71
2022/05/29 11:27:18;;;;;;;4.95;1.10;;;;;;;16.63;41.23;98949.66;8214460;28;20040;-72
2022/05/29 11:31:51;;;;;;;6.30;1.50;;;;;;;17.04;41.18;98949.09;8199513;28;20054;-73
2022/05/29 11:36:02;;;;;;;6.20;1.70;;;;;;;17.30;41.43;98941.09;8141315;29;20513;-75
2022/05/29 11:40:22;;;;;;;7.97;1.60;;;;;;;17.26;40.00;98929.31;8127978;29;20183;-73
2022/05/29 11:44:29;;;;;;;4.97;1.55;;;;;;;17.56;40.57;98926.03;8131970;29;20063;-73
2022/05/29 11:53:00;;;;;;;3.03;1.35;;;;;;;17.52;40.05;98914.25;8131415;29;20075;-72
2022/05/29 11:57:19;;;;;;;4.88;1.40;;;;;;;17.65;39.36;98896.63;8116132;29;20075;-73
2022/05/29 12:01:32;;;;;;;7.80;1.30;;;;;;;17.93;39.86;98891.69;8131167;29;20063;-74
2022/05/29 12:05:58;;;;;;;6.85;1.55;;;;;;;18.04;36.55;98895.41;8130943;29;20288;-73
2022/05/29 12:10:14;;;;;;;4.78;1.50;;;;;;;17.86;37.26;98901.69;8121505;29;20079;-73
2022/05/29 12:14:40;;;;;;;6.80;1.30;;;;;;;17.84;36.05;98899.31;8196685;28;20043;-73
2022/05/29 12:18:48;;;;;;;4.35;1.50;;;;;;;17.84;36.87;98872.00;8162497;29;20063;-73
2022/05/29 12:22:57;;;;;;;5.30;1.30;;;;;;;18.01;37.59;98871.53;8154804;29;20055;-74
2022/05/29 12:27:21;;;;;;;4.05;1.25;;;;;;;18.42;37.79;98875.34;8152571;28;20058;-74
2022/05/29 12:31:28;;;;;;;7.38;1.80;;;;;;;18.56;37.99;98885.75;8177398;29;20079;-74
2022/05/29 12:35:35;;;;;;;9.38;1.50;;;;;;;18.53;35.79;98891.94;8176473;29;20056;-74
2022/05/29 12:39:39;;;;;;;8.68;1.60;;;;;;;18.28;36.24;98890.75;8115671;29;20182;-73
2022/05/29 12:44:04;;;;;;;8.02;1.60;;;;;;;17.99;35.97;98906.63;8152152;29;20056;-73
2022/05/29 12:48:35;;;;;;;7.40;1.55;;;;;;;17.84;35.84;98899.31;8123304;29;20060;-74
2022/05/29 12:52:50;;;;;;;3.97;1.20;;;;;;;17.81;37.45;98905.50;8158631;29;20134;-75
2022/05/29 12:56:51;;;;;;;3.92;1.50;;;;;;;17.99;37.01;98901.16;8197839;28;20658;-72
2022/05/29 13:01:14;;;;;;;3.20;1.10;;;;;;;18.00;37.41;98902.75;8202743;28;20471;-74
2022/05/29 13:05:43;;;;;;;5.72;1.27;;;;;;;17.67;38.50;98906.00;8225001;28;20058;-74
2022/05/29 13:09:53;;;;;;;5.23;1.13;;;;;;;17.98;38.81;98888.66;8204260;28;20039;-74
2022/05/29 13:13:59;;;;;;;4.22;1.35;;;;;;;18.17;38.51;98895.22;8203919;28;20103;-74
2022/05/29 13:18:05;;;;;;;8.07;1.60;;;;;;;18.39;37.52;98887.03;8217782;28;20411;-74
2022/05/29 13:22:08;;;;;;;10.38;1.92;;;;;;;18.79;38.71;98864.63;8202769;28;20058;-74
2022/05/29 13:26:09;;;;;;;4.32;1.40;;;;;;;19.18;37.67;98872.59;8204341;28;20070;-74
2022/05/29 13:30:36;;;;;;;5.85;1.70;;;;;;;19.11;38.23;98861.56;8203606;28;20507;-73
2022/05/29 13:34:36;;;;;;;5.80;1.42;;;;;;;18.72;35.39;98867.25;8203456;28;20063;-75
2022/05/29 13:38:44;;;;;;;5.30;1.13;;;;;;;18.85;36.22;98865.91;8203361;28;20054;-73
2022/05/29 13:42:49;;;;;;;6.22;1.52;;;;;;;19.01;37.45;98862.19;8203699;28;20066;-72
2022/05/29 13:47:18;;;;;;;7.28;1.40;;;;;;;19.07;38.12;98857.97;8169306;29;20054;-73
2022/05/29 13:51:27;;;;;;;5.30;1.42;;;;;;;18.66;38.02;98863.28;8201745;28;20047;-75
2022/05/29 13:55:50;;;;;;;3.75;1.45;;;;;;;18.65;38.46;98867.16;8201387;28;20047;-74
2022/05/29 14:04:19;;;;;;;5.45;1.45;;;;;;;19.42;37.20;98866.63;8189703;28;20075;-74
2022/05/29 14:08:20;;;;;;;5.82;1.20;;;;;;;18.92;37.51;98871.47;8181931;28;20058;-75
2022/05/29 14:12:21;;;;;;;11.73;1.73;;;;;;;18.60;38.62;98864.75;8201808;28;20102;-75
2022/05/29 14:16:24;;;;;;;8.65;1.50;;;;;;;18.41;39.34;98862.03;8201774;28;20108;-73
2022/05/29 14:20:28;;;;;;;5.65;1.90;;;;;;;18.30;40.28;98850.16;8202218;28;20043;-73
2022/05/29 14:24:55;;;;;;;5.63;1.67;;;;;;;18.40;40.44;98849.56;8199231;28;20051;-74
2022/05/29 14:29:23;;;;;;;5.90;1.75;;;;;;;19.67;38.97;98845.81;8216698;28;20122;-73
2022/05/29 14:33:59;;;;;;;5.60;1.42;;;;;;;20.17;37.25;98835.34;8195418;28;20055;-73
2022/05/29 14:38:21;;;;;;;5.95;1.45;;;;;;;20.52;37.16;98843.88;8178779;29;20066;-74
2022/05/29 14:42:23;;;;;;;8.38;1.38;;;;;;;21.91;35.81;98864.59;8196558;28;20083;-73
2022/05/29 14:50:56;;;;;;;6.03;1.40;;;;;;;20.72;35.24;98852.69;8136811;29;20054;-73
2022/05/29 14:55:07;;;;;;;5.50;1.45;;;;;;;20.12;37.22;98843.94;8160519;29;20091;-74
2022/05/29 14:59:22;;;;;;;5.38;1.30;;;;;;;19.78;38.00;98856.91;8165149;29;20139;-74
2022/05/29 15:03:31;;;;;;;6.35;1.45;;;;;;;19.45;38.44;98865.16;8179173;29;20071;-73
2022/05/29 15:11:53;;;;;;;9.80;1.52;;;;;;;18.57;37.83;98860.00;8196282;28;20102;-72
2022/05/29 15:15:58;;;;;;;7.15;1.55;;;;;;;18.35;37.69;98847.91;8188461;28;20043;-72
2022/05/29 15:24:25;;;;;;;4.70;1.92;;;;;;;18.01;39.60;98833.28;8196739;28;20126;-72
2022/05/29 15:28:27;;;;;;;9.40;1.38;;;;;;;18.01;39.12;98838.75;8169099;29;20416;-74
2022/05/29 15:32:31;;;;;;;5.28;1.17;;;;;;;18.11;37.75;98837.34;8172781;28;20139;-73
2022/05/29 15:36:35;;;;;;;2.92;1.38;;;;;;;18.07;37.63;98837.31;8170375;29;20680;-72
2022/05/29 15:41:02;;;;;;;7.78;1.30;;;;;;;18.41;38.14;98845.66;8190598;28;20404;-73
2022/05/29 15:45:06;;;;;;;6.63;1.38;;;;;;;18.53;38.52;98838.03;8200532;28;20498;-73
2022/05/29 15:49:07;;;;;;;8.93;1.73;;;;;;;18.44;37.78;98828.53;8197454;29;20051;-73
2022/05/29 15:53:42;;;;;;;6.60;1.40;;;;;;;18.18;38.50;98836.69;8182264;28;20051;-76
2022/05/29 15:57:46;;;;;;;6.60;1.38;;;;;;;17.76;40.17;98843.00;8188842;28;20047;-75
2022/05/29 16:02:09;;;;;;;6.88;1.40;;;;;;;17.58;39.49;98820.78;8200874;28;20133;-75
2022/05/29 16:06:37;;;;;;;5.82;1.80;;;;;;;17.50;39.82;98831.94;8188501;28;20059;-73
2022/05/29 16:10:39;;;;;;;6.15;1.50;;;;;;;17.48;41.18;98820.56;8183658;28;20054;-73
2022/05/29 16:14:42;;;;;;;3.95;1.65;;;;;;;17.41;42.17;98825.88;8190966;28;20052;-74
2022/05/29 16:18:49;;;;;;;5.30;1.60;;;;;;;17.33;42.80;98824.97;8173208;29;20070;-73
2022/05/29 16:23:15;;;;;;;10.77;2.05;;;;;;;17.10;44.08;98816.69;8183383;29;20491;-73
2022/05/29 16:27:49;;;;;;;8.10;1.58;;;;;;;17.10;43.92;98822.16;8197230;28;20470;-73
2022/05/29 16:32:15;;;;;;;10.00;1.70;;;;;;;17.15;44.29;98821.88;8232083;28;20051;-72
2022/05/29 16:36:31;;;;;;;5.63;1.55;;;;;;;17.17;43.99;98816.06;8174841;28;20139;-74
2022/05/29 16:49:30;;;;;;;5.55;1.52;;;;;;;16.81;46.35;98825.44;8205267;28;20447;-73
2022/05/29 16:53:49;;;;;;;7.38;1.80;;;;;;;16.64;46.38;98812.19;8206152;28;20134;-73
2022/05/29 16:57:55;;;;;;;5.90;1.40;;;;;;;16.65;46.42;98821.97;8205838;28;20054;-74
2022/05/29 17:02:17;;;;;;;9.20;1.83;;;;;;;16.70;46.54;98818.97;8204731;28;20062;-72
2022/05/29 17:06:25;;;;;;;6.47;1.65;;;;;;;16.64;46.33;98814.91;8205762;28;20056;-73
2022/05/29 17:10:30;;;;;;;5.60;1.58;;;;;;;16.64;46.97;98809.47;8205881;28;20127;-73
2022/05/29 17:14:31;;;;;;;10.32;2.38;;;;;;;16.49;47.43;98808.34;8203806;28;20073;-73
2022/05/29 17:18:32;;;;;;;9.50;1.77;;;;;;;16.39;47.81;98809.66;8205328;28;20122;-73
2022/05/29 17:22:41;;;;;;;5.45;1.83;;;;;;;16.30;48.02;98800.88;8205348;28;20059;-73
2022/05/29 17:26:55;;;;;;;9.55;2.35;;;;;;;16.27;48.21;98807.03;8216614;28;20058;-73
2022/05/29 17:31:08;;;;;;;5.72;2.00;;;;;;;16.17;48.92;98802.13;8203180;29;20055;-74
2022/05/29 17:35:15;;;;;;;6.10;2.30;;;;;;;16.04;49.70;98803.34;8204790;28;20051;-73
2022/05/29 17:39:24;;;;;;;4.85;1.98;;;;;;;15.91;50.64;98804.59;8203059;28;20142;-73
2022/05/29 17:43:27;;;;;;;6.78;1.98;;;;;;;15.78;51.41;98805.81;8203223;29;20055;-73
2022/05/29 17:47:48;;;;;;;8.13;2.38;;;;;;;15.63;52.27;98800.00;8203936;28;20139;-73
2022/05/29 17:52:07;;;;;;;4.70;1.90;;;;;;;15.53;53.06;98800.50;8204042;28;20550;-73
2022/05/29 17:56:09;;;;;;;8.15;2.50;;;;;;;15.43;53.87;98801.00;8204770;28;20051;-73
2022/05/29 18:00:14;;;;;;;5.78;2.03;;;;;;;15.33;54.62;98806.94;8215532;28;20047;-73
2022/05/29 18:04:15;;;;;;;7.38;2.55;;;;;;;15.25;54.66;98805.13;8203672;28;20059;-73
2022/05/29 18:08:16;;;;;;;7.45;3.03;;;;;;;15.19;55.03;98806.50;8217953;28;20051;-73
2022/05/29 18:12:29;;;;;;;57.30;24.92;;;;;;;15.06;55.20;98807.72;8203894;28;20506;-72
2022/05/29 18:16:30;;;;;;;57.75;32.25;;;;;;;14.90;55.31;98815.00;8185689;28;20087;-73
2022/05/29 18:20:31;;;;;;;16.85;7.43;;;;;;;14.72;55.35;98804.41;8203587;28;20052;-73
2022/05/29 18:24:32;;;;;;;9.90;3.50;;;;;;;14.72;55.68;98809.84;8203618;28;20051;-73
2022/05/29 18:28:34;;;;;;;9.60;2.53;;;;;;;14.66;55.70;98822.06;8217249;28;20058;-73
2022/05/29 18:32:38;;;;;;;10.07;3.42;;;;;;;14.58;55.57;98814.84;8203307;28;20062;-72
2022/05/29 18:36:39;;;;;;;9.30;3.20;;;;;;;14.45;56.78;98815.97;8184402;28;20055;-72
2022/05/29 18:40:40;;;;;;;10.75;3.47;;;;;;;14.27;57.94;98814.63;8202431;28;20051;-73
2022/05/29 18:44:41;;;;;;;10.75;2.88;;;;;;;14.11;59.23;98811.78;8202301;28;20051;-73
2022/05/29 18:48:43;;;;;;;10.73;3.15;;;;;;;13.95;60.09;98819.00;8201856;28;20147;-73
2022/05/29 18:52:44;;;;;;;9.40;3.10;;;;;;;13.81;61.00;98822.03;8200328;28;20043;-73
2022/05/29 18:56:46;;;;;;;8.85;2.63;;;;;;;13.68;61.67;98823.13;8200363;28;20059;-73
2022/05/29 19:00:54;;;;;;;9.73;3.13;;;;;;;13.55;62.38;98818.78;8168112;29;20054;-73
2022/05/29 19:04:56;;;;;;;10.63;3.15;;;;;;;13.45;62.72;98821.94;8215763;28;20113;-72
2022/05/29 19:08:59;;;;;;;12.02;5.07;;;;;;;13.36;62.96;98830.16;8216727;28;20142;-71
2022/05/29 19:13:00;;;;;;;36.85;20.13;;;;;;;13.25;63.00;98833.59;8219697;28;20399;-72
2022/05/29 19:17:01;;;;;;;29.95;17.00;;;;;;;13.16;63.51;98832.91;8214498;28;20042;-73
2022/05/29 19:21:03;;;;;;;16.17;9.25;;;;;;;13.06;63.95;98828.59;8181890;28;20047;-72
2022/05/29 19:25:08;;;;;;;20.80;9.30;;;;;;;12.97;64.64;98828.69;8184055;28;20055;-73
2022/05/29 19:29:09;;;;;;;12.77;6.47;;;;;;;12.89;64.88;98832.28;8172644;29;20565;-72
2022/05/29 19:33:10;;;;;;;15.13;7.55;;;;;;;12.83;64.71;98828.16;8176264;28;20107;-72
2022/05/29 19:37:12;;;;;;;20.48;10.25;;;;;;;12.79;64.74;98827.25;8196400;28;20134;-71
2022/05/29 19:41:19;;;;;;;14.60;6.90;;;;;;;12.71;65.58;98825.38;8208181;28;20055;-73
2022/05/29 19:45:23;;;;;;;13.75;5.13;;;;;;;12.65;65.80;98818.56;8186464;28;20051;-72
2022/05/29 19:49:24;;;;;;;10.45;3.88;;;;;;;12.61;66.04;98818.44;8204453;28;20051;-71
2022/05/29 19:53:25;;;;;;;10.40;3.78;;;;;;;12.58;66.49;98818.31;8198551;28;20147;-73
2022/05/29 19:57:27;;;;;;;9.13;4.03;;;;;;;12.57;66.92;98822.13;8193664;28;20054;-72
2022/05/29 20:01:32;;;;;;;10.43;3.80;;;;;;;12.52;67.47;98819.63;8214902;28;20058;-71
2022/05/29 20:05:33;;;;;;;10.60;4.32;;;;;;;12.44;67.77;98826.66;8177519;28;20499;-72
2022/05/29 20:09:34;;;;;;;7.85;3.65;;;;;;;12.42;68.19;98822.69;8172766;29;20091;-73
2022/05/29 20:13:35;;;;;;;21.80;5.55;;;;;;;12.38;68.27;98832.56;8190174;28;20067;-72